Alberto Martini

Recruteur - Genoa
3 Déc 2028
Dimanche
Processus

Personnalité

Adaptabilité (19) Ambition (17) Controverse (11) Loyauté (12) Pression (18) Professionnalisme (4) Sportivité (6) Tempérament (10)

Profil

Style d'entraînement Démocratique
Diplôme Continental C
Détermination 11
Gestion des joueurs 5
Motivation 10
Discipline 13
Satisfaction professionnelle
100%
Fatigue
0%
Rôle Recruteur
Salaire 56.3K p/s
Contrat 14.03.2029

Performance

Comportement Bon
Efficacité de l'entraînement
66%
Développement des joueurs
70%
Prévention des blessures
45%
Mise en place tactique
70%

Événements récents

A évalué un joueur maintenant
A participé à une réunion de recrutement maintenant
A recommandé une cible de transfert maintenant
A évalué un joueur maintenant
A évalué un joueur maintenant
A évalué un joueur 7j
A évalué un joueur 7j
A évalué un joueur 7j

Suivi en cours

70
Joueur Club Statut Capacité Confiance Observé Dernière observation Dernier vote
Celías Ingenthron Platense Actif 117 / 121 40% 4 02.12.2028 -
Felipe Pujol Vélez Actif 113 / 129 40% 4 02.12.2028 -
Miguel Figueiredo Benfica Actif 128 / 141 40% 4 02.12.2028 -
Tyson Pearce St. Louis CITY SC Actif 97 / 107 40% 3 01.12.2028 -
Máximo Munarriz San Telmo Actif 99 / 104 40% 5 01.12.2028 -
Salvador Blopá Wolverhampton Actif 130 / 130 40% 2 01.12.2028 -
Daniel Banjaqui Benfica Actif 130 / 135 40% 5 30.11.2028 -
José Neto Benfica Actif 127 / 139 40% 2 30.11.2028 -
Christos Mouzakitis Hull City Actif 144 / 155 40% 14 29.11.2028 -
Chris Rigg West Ham United Actif 139 / 153 40% 1 29.11.2028 -
Máximo Magnoli Ferro Carril Oeste Actif 99 / 98 40% 1 29.11.2028 -
Diego León Rotherham United Actif 130 / 124 40% 6 27.11.2028 -
Louis Page Leicester City Actif 132 / 148 40% 2 27.11.2028 -
Ayyoub Bouaddi Stoke City Actif 149 / 151 40% 2 27.11.2028 -
Bernardo Lima Porto Actif 118 / 125 40% 8 26.11.2028 -
Trey Nyoni Rotherham United Actif 145 / 150 40% 8 25.11.2028 -
Cheveyo Tsawa Club Brugge Actif 134 / 140 40% 2 24.11.2028 -
Matías Satas Grimsby Town Actif 106 / 112 40% 4 23.11.2028 -
Veljko Milosavljević Bournemouth Actif 149 / 162 40% 3 22.11.2028 -
Honest Ahanor Atalanta Actif 143 / 137 40% 3 20.11.2028 -
Noah Markmann Esbjerg Actif 122 / 137 40% 2 19.11.2028 -
Eman Košpo Zorya Actif 109 / 132 40% 1 19.11.2028 -
Riquelme Thompson-Jones Accrington Stanley Négociation 111 / 130 40% 9 13.11.2028 -
Jack Shorrock Port Vale Actif 106 / 105 40% 2 12.11.2028 -
Andrey Ivlev Nizhniy Novgorod Actif 118 / 108 40% 4 07.11.2028 -
Giovanni Leoni Lincoln City Actif 144 / 147 40% 4 07.11.2028 -
Azizbek To'lqinbekov Bunyodkor Actif 106 / 107 40% 3 07.11.2028 -
Josh King Newcastle United Actif 144 / 155 40% 1 06.11.2028 -
Agustín Medina Lanús Actif 116 / 116 40% 4 11.10.2028 -
Matías Magdaleno Estudiantes Actif 110 / 125 40% 1 11.10.2028 -
Pietro La Torre Queens Park Rangers Actif 101 / 108 40% 2 10.10.2028 -
Lautaro Dufur Juventud Actif 103 / 114 40% 1 09.10.2028 -
Matteo Palma Udinese Actif 130 / 133 40% 2 08.10.2028 -
Augusto Bando Ascoli Actif 119 / 127 40% 4 07.10.2028 -
Andrija Bulatović Chamois Niortais Actif 133 / 141 40% 2 07.10.2028 -
Kwesi Sorotu Badori Berekum Chelsea Actif 103 / 114 40% 1 06.09.2028 -
Myles Lewis-Skelly Arsenal Actif 158 / 169 40% 1 04.09.2028 -
Tobías Ramírez River Plate Actif 130 / 134 40% 1 04.09.2028 -
Antonio Boccadamo Virtus Entella Rapport prêt 106 / 107 83% 1 28.08.2028 -
Riquelme Fillipi Inter Miami CF Perdu 111 / 112 40% 1 21.08.2028 -
Matías Arias Vélez Actif 118 / 113 40% 1 21.08.2028 -
Alen Vukaj Alcione Milano Actif 100 / 119 40% 1 15.08.2028 -
Valentino Huertas Morón Actif 102 / 116 40% 1 15.08.2028 -
Alessandro Capelli Padova Perdu 114 / 117 83% 1 14.08.2028 -
Alessio Insignito Spezia Actif 105 / 120 40% 3 26.06.2028 -
Kevin Piscopo Juve Stabia Perdu 124 / 124 79% 1 19.06.2028 -
Jan Bürger Northampton Town Actif 123 / 117 40% 8 31.05.2028 -
Martim Cunha Porto Actif 110 / 112 40% 5 30.05.2028 -
Kiani Inge Groningen Actif 112 / 125 40% 7 29.05.2028 -
Musa Danjuma Umraniyespor Actif 91 / 113 40% 2 28.05.2028 -
Ayden Heaven Portsmouth Actif 150 / 159 40% 3 23.05.2028 -
Josh Nichols Oldham Athletic Actif 123 / 130 40% 4 17.05.2028 -
Federico Matarán Giana Erminio Actif 105 / 121 40% 2 15.05.2028 -
Tyler Fletcher Rotherham United Actif 110 / 120 40% 3 12.05.2028 -
Andrea Cogoni Cosenza Actif 103 / 111 40% 3 09.05.2028 -
Jorthy Mokio ADO Den Haag Actif 135 / 143 40% 6 04.05.2028 -
Josh Acheampong Everton Actif 141 / 139 40% 4 27.04.2028 -
Olivier Leroux Mouscron Actif 103 / 112 40% 2 25.04.2028 -
Simphiwe Selepe Orlando Pirates Actif 116 / 113 40% 3 21.12.2026 -
Illaijh de Ruijter ADO Den Haag Actif 115 / 123 40% 1 21.12.2026 -
Louis Leroux FC Nantes Actif 127 / 133 40% 1 16.11.2026 -
David Ozoh Derby County Actif 116 / 121 40% 1 15.11.2026 -
Philippe Ndinga Philadelphia Union Actif 121 / 127 40% 1 15.11.2026 -
Matteo Pérez Vinlöf Dinamo Zagreb Actif 112 / 134 40% 1 08.11.2026 -
Ignacio Perruzzi San Lorenzo Actif 115 / 136 40% 2 18.10.2026 -
James Dornelly Peterborough United Actif 105 / 100 40% 1 18.10.2026 -
Sascha Britschgi AC Milan Actif 124 / 135 40% 1 16.10.2026 -
Nico O'Reilly Manchester City Actif 154 / 149 40% 1 16.10.2026 -
Caleb Yirenkyi Coventry City Actif 138 / 148 40% 1 08.10.2026 -
Edoardo Pieragnolo Sassuolo Actif 115 / 118 76% 1 31.08.2026 Approuver